Time;durP1;ratioP1;P1;durP2;ratioP2;P2;SDS_P1;SDS_P2;PMS_P1;PMS_P2;Temp;Humidity;BMP_temperature;BMP_pressure;BME280_temperature;BME280_humidity;BME280_pressure;Samples;Min_cycle;Max_cycle;Signal;HPM_P1;HPM_P2
2024/02/11 00:00:45;;;;;;;2.38;1.55;;;;;;;;;;5004907;28;20042;-70
2024/02/11 00:03:10;;;;;;;2.95;1.60;;;;;;;;;;5008145;28;20156;-70
2024/02/11 00:05:35;;;;;;;2.00;1.40;;;;;;;;;;5007526;28;20121;-70
2024/02/11 00:08:01;;;;;;;2.22;1.30;;;;;;;;;;5002372;28;20457;-69
2024/02/11 00:10:26;;;;;;;2.15;1.30;;;;;;;;;;5002856;28;20046;-69
2024/02/11 00:12:51;;;;;;;2.20;1.50;;;;;;;;;;4988319;28;20122;-70
2024/02/11 00:15:17;;;;;;;3.25;1.65;;;;;;;;;;4995481;28;20092;-70
2024/02/11 00:17:46;;;;;;;3.50;1.80;;;;;;;;;;5006473;28;20117;-70
2024/02/11 00:20:14;;;;;;;2.40;1.43;;;;;;;;;;4988140;28;20041;-70
2024/02/11 00:22:40;;;;;;;3.25;1.70;;;;;;;;;;5006214;28;20030;-70
2024/02/11 00:25:09;;;;;;;2.50;1.60;;;;;;;;;;5005739;28;20040;-70
2024/02/11 00:27:35;;;;;;;2.22;1.30;;;;;;;;;;5006390;28;20026;-70
2024/02/11 00:30:01;;;;;;;3.50;1.50;;;;;;;;;;5003225;28;20878;-70
2024/02/11 00:32:26;;;;;;;2.78;1.30;;;;;;;;;;5005376;28;20153;-70
2024/02/11 00:34:51;;;;;;;1.90;1.40;;;;;;;;;;5006134;28;20218;-70
2024/02/11 00:37:17;;;;;;;1.88;1.33;;;;;;;;;;5006450;28;20042;-70
2024/02/11 00:39:42;;;;;;;2.50;1.30;;;;;;;;;;5005787;28;20046;-70
2024/02/11 00:42:07;;;;;;;1.83;1.30;;;;;;;;;;5005994;28;20034;-69
2024/02/11 00:44:34;;;;;;;1.70;1.13;;;;;;;;;;5005962;28;20049;-70
2024/02/11 00:47:00;;;;;;;3.00;1.35;;;;;;;;;;5006412;28;20046;-70
2024/02/11 00:49:26;;;;;;;2.55;1.05;;;;;;;;;;5005058;28;20030;-70
2024/02/11 00:51:51;;;;;;;2.22;1.50;;;;;;;;;;5005940;28;20131;-70
2024/02/11 00:54:16;;;;;;;1.98;1.40;;;;;;;;;;5007040;28;20193;-70
2024/02/11 00:56:42;;;;;;;2.20;1.40;;;;;;;;;;5006057;28;20139;-70
2024/02/11 00:59:07;;;;;;;1.88;1.27;;;;;;;;;;4979957;28;20519;-69
2024/02/11 01:04:38;;;;;;;2.95;1.42;;;;;;;;;;5000273;28;20064;-69
2024/02/11 01:07:04;;;;;;;2.15;1.27;;;;;;;;;;4999997;28;20021;-70
2024/02/11 01:09:31;;;;;;;1.63;1.13;;;;;;;;;;4970732;28;20520;-67
2024/02/11 01:11:57;;;;;;;2.08;1.40;;;;;;;;;;4999362;28;20034;-70
2024/02/11 01:14:23;;;;;;;1.80;1.20;;;;;;;;;;5006874;28;20099;-68
2024/02/11 01:16:49;;;;;;;2.72;1.27;;;;;;;;;;4982273;28;20100;-68
2024/02/11 01:19:14;;;;;;;3.58;1.60;;;;;;;;;;5007191;28;20042;-69
2024/02/11 01:21:39;;;;;;;2.75;1.40;;;;;;;;;;5002134;28;20526;-69
2024/02/11 01:24:05;;;;;;;2.65;1.35;;;;;;;;;;4997589;28;20096;-73
2024/02/11 01:26:30;;;;;;;2.38;1.33;;;;;;;;;;5003621;28;20602;-73
2024/02/11 01:28:55;;;;;;;1.70;1.20;;;;;;;;;;5007359;28;20062;-73
2024/02/11 01:31:22;;;;;;;3.08;1.52;;;;;;;;;;5007411;28;20038;-73
2024/02/11 01:33:49;;;;;;;3.47;1.33;;;;;;;;;;4992719;28;20365;-73
2024/02/11 01:36:15;;;;;;;2.13;1.23;;;;;;;;;;5006886;28;20117;-73
2024/02/11 01:38:43;;;;;;;2.92;1.33;;;;;;;;;;5007522;28;20157;-73
2024/02/11 01:41:09;;;;;;;1.95;1.10;;;;;;;;;;5007558;28;20033;-73
2024/02/11 01:43:34;;;;;;;2.55;1.40;;;;;;;;;;4996097;28;20041;-73
2024/02/11 01:45:59;;;;;;;1.75;1.17;;;;;;;;;;4992051;28;20140;-73
2024/02/11 01:48:24;;;;;;;2.20;1.30;;;;;;;;;;5010739;28;20097;-73
2024/02/11 01:50:52;;;;;;;1.40;1.00;;;;;;;;;;4995210;28;20443;-73
2024/02/11 01:53:20;;;;;;;2.42;1.25;;;;;;;;;;5009367;28;20034;-73
2024/02/11 01:55:46;;;;;;;1.80;1.20;;;;;;;;;;5008358;28;20049;-73
2024/02/11 01:58:12;;;;;;;2.55;1.30;;;;;;;;;;4973082;28;20877;-72
2024/02/11 02:00:38;;;;;;;1.95;1.27;;;;;;;;;;5005586;28;20034;-71
2024/02/11 02:03:03;;;;;;;3.38;1.40;;;;;;;;;;4986894;28;20408;-72
2024/02/11 02:05:28;;;;;;;2.75;1.40;;;;;;;;;;4987781;28;20034;-72
2024/02/11 02:07:55;;;;;;;2.00;1.20;;;;;;;;;;5007600;28;20026;-71
2024/02/11 02:10:22;;;;;;;2.13;1.23;;;;;;;;;;5007838;28;20033;-71
2024/02/11 02:12:47;;;;;;;2.47;1.48;;;;;;;;;;4987165;28;20357;-71
2024/02/11 02:15:13;;;;;;;2.00;1.30;;;;;;;;;;5005721;28;20090;-71
2024/02/11 02:17:38;;;;;;;2.00;1.25;;;;;;;;;;5006935;28;20038;-71
2024/02/11 02:20:04;;;;;;;2.10;1.30;;;;;;;;;;5006878;28;20034;-70
2024/02/11 02:22:30;;;;;;;2.17;1.40;;;;;;;;;;4974081;28;20068;-71
2024/02/11 02:24:56;;;;;;;1.70;1.00;;;;;;;;;;5005984;28;20034;-71
2024/02/11 02:27:21;;;;;;;2.15;1.40;;;;;;;;;;5007048;28;20040;-71
2024/02/11 02:29:46;;;;;;;1.80;1.13;;;;;;;;;;5007887;28;20042;-71
2024/02/11 02:32:12;;;;;;;2.00;1.30;;;;;;;;;;5008440;28;20040;-71
2024/02/11 02:34:40;;;;;;;1.98;1.23;;;;;;;;;;5007693;28;20049;-71
2024/02/11 02:37:06;;;;;;;2.38;1.20;;;;;;;;;;4990545;28;20738;-71
2024/02/11 02:39:31;;;;;;;2.15;1.35;;;;;;;;;;5009600;28;20369;-71
2024/02/11 02:41:57;;;;;;;2.38;1.35;;;;;;;;;;5007939;28;20046;-71
2024/02/11 02:44:22;;;;;;;1.73;1.30;;;;;;;;;;5006388;28;20033;-71
2024/02/11 02:46:48;;;;;;;2.22;1.20;;;;;;;;;;4988580;28;20578;-71
2024/02/11 02:49:13;;;;;;;2.75;1.30;;;;;;;;;;4973951;28;20038;-71
2024/02/11 02:51:41;;;;;;;2.33;1.33;;;;;;;;;;5005888;28;20466;-72
2024/02/11 02:54:06;;;;;;;2.03;1.10;;;;;;;;;;5002069;28;20030;-71
2024/02/11 02:56:34;;;;;;;1.83;1.30;;;;;;;;;;5003123;28;20053;-70
2024/02/11 02:59:08;;;;;;;2.13;1.25;;;;;;;;;;4999247;28;20120;-71
2024/02/11 03:01:34;;;;;;;1.88;1.02;;;;;;;;;;5004661;28;20064;-72
2024/02/11 03:03:59;;;;;;;1.77;1.15;;;;;;;;;;4988198;28;20061;-72
2024/02/11 03:06:25;;;;;;;1.77;1.20;;;;;;;;;;5004038;28;20113;-72
2024/02/11 03:08:52;;;;;;;2.03;1.30;;;;;;;;;;5002374;28;20030;-70
2024/02/11 03:11:17;;;;;;;1.52;0.90;;;;;;;;;;4988946;28;20527;-71
2024/02/11 03:13:43;;;;;;;2.45;1.10;;;;;;;;;;5004996;28;20046;-72
2024/02/11 03:16:14;;;;;;;1.55;0.80;;;;;;;;;;5004765;28;20042;-71
2024/02/11 03:18:40;;;;;;;1.60;1.15;;;;;;;;;;4988045;28;20041;-71
2024/02/11 03:21:06;;;;;;;1.95;1.35;;;;;;;;;;5005130;28;20034;-71
2024/02/11 03:23:31;;;;;;;2.30;1.30;;;;;;;;;;5004576;28;20094;-71
2024/02/11 03:25:56;;;;;;;3.38;1.10;;;;;;;;;;4984972;28;20113;-72
2024/02/11 03:28:22;;;;;;;1.35;1.00;;;;;;;;;;5005565;28;20520;-70
2024/02/11 03:30:47;;;;;;;2.63;1.30;;;;;;;;;;5003870;28;20579;-71
2024/02/11 03:33:15;;;;;;;1.70;1.00;;;;;;;;;;5004384;28;20507;-72
2024/02/11 03:35:41;;;;;;;2.20;1.08;;;;;;;;;;5003931;28;20113;-71
2024/02/11 03:38:06;;;;;;;2.80;1.05;;;;;;;;;;4996990;28;20140;-72
2024/02/11 03:40:32;;;;;;;1.70;1.10;;;;;;;;;;4997906;28;20108;-70
2024/02/11 03:42:58;;;;;;;1.75;1.00;;;;;;;;;;5001958;28;20408;-70
2024/02/11 03:45:23;;;;;;;1.98;1.20;;;;;;;;;;4986150;28;20028;-71
2024/02/11 03:47:48;;;;;;;1.40;1.10;;;;;;;;;;4999171;28;20040;-69
2024/02/11 03:50:14;;;;;;;2.22;1.35;;;;;;;;;;5003397;28;20113;-70
2024/02/11 03:52:39;;;;;;;2.35;1.42;;;;;;;;;;5005012;28;20026;-70
2024/02/11 03:55:06;;;;;;;1.77;1.05;;;;;;;;;;5003814;28;20085;-70
2024/02/11 03:57:31;;;;;;;1.70;1.02;;;;;;;;;;4987136;28;20038;-71
2024/02/11 03:59:57;;;;;;;2.03;1.20;;;;;;;;;;5003626;28;20029;-69
2024/02/11 04:02:22;;;;;;;2.13;1.30;;;;;;;;;;5003797;28;20459;-71
2024/02/11 04:04:49;;;;;;;2.05;0.95;;;;;;;;;;5003614;28;20093;-71
2024/02/11 04:07:15;;;;;;;2.08;0.98;;;;;;;;;;5002408;28;20388;-71
2024/02/11 04:09:40;;;;;;;2.10;1.13;;;;;;;;;;5003944;28;20535;-71
2024/02/11 04:12:08;;;;;;;2.10;0.98;;;;;;;;;;5004832;28;20034;-69
2024/02/11 04:14:36;;;;;;;1.77;1.20;;;;;;;;;;5003659;28;20030;-70
2024/02/11 04:17:09;;;;;;;2.25;1.00;;;;;;;;;;5003731;28;20053;-69
2024/02/11 04:19:36;;;;;;;2.55;1.08;;;;;;;;;;4986606;28;20129;-70
2024/02/11 04:22:04;;;;;;;2.20;1.13;;;;;;;;;;4999825;28;20053;-70
2024/02/11 04:24:29;;;;;;;1.63;1.02;;;;;;;;;;4988420;28;20113;-68
2024/02/11 04:26:55;;;;;;;1.75;1.05;;;;;;;;;;5000305;28;20038;-70
2024/02/11 04:29:20;;;;;;;1.60;0.80;;;;;;;;;;5004002;28;20061;-69
2024/02/11 04:31:47;;;;;;;1.63;1.08;;;;;;;;;;5004267;28;20087;-70
2024/02/11 04:34:13;;;;;;;2.33;1.20;;;;;;;;;;5003846;28;20441;-69
2024/02/11 04:36:38;;;;;;;2.15;1.00;;;;;;;;;;5003288;28;20038;-69
2024/02/11 04:39:07;;;;;;;2.05;0.95;;;;;;;;;;4999789;28;20213;-69
2024/02/11 04:41:36;;;;;;;1.42;1.00;;;;;;;;;;5022945;28;20114;-69
2024/02/11 04:44:03;;;;;;;1.55;0.90;;;;;;;;;;5027890;28;20524;-70
2024/02/11 04:46:29;;;;;;;1.58;1.00;;;;;;;;;;5010006;28;20041;-70
2024/02/11 04:48:54;;;;;;;1.92;1.00;;;;;;;;;;5008192;28;20037;-70
2024/02/11 04:51:22;;;;;;;1.60;1.20;;;;;;;;;;5027020;28;20128;-71
2024/02/11 04:53:48;;;;;;;1.80;0.90;;;;;;;;;;5028692;28;20418;-70
2024/02/11 04:56:17;;;;;;;2.08;0.98;;;;;;;;;;5028803;28;20038;-70
2024/02/11 04:58:43;;;;;;;2.05;0.90;;;;;;;;;;5027362;28;20040;-69
2024/02/11 05:01:08;;;;;;;1.40;0.90;;;;;;;;;;5008968;28;20423;-70
2024/02/11 05:03:34;;;;;;;1.85;1.00;;;;;;;;;;5006957;28;20131;-71
2024/02/11 05:06:00;;;;;;;1.55;0.95;;;;;;;;;;5029998;28;20136;-70
2024/02/11 05:08:27;;;;;;;2.05;1.15;;;;;;;;;;5009158;28;20557;-69
2024/02/11 05:10:53;;;;;;;1.90;1.10;;;;;;;;;;5028339;28;20017;-71
2024/02/11 05:13:18;;;;;;;2.08;1.10;;;;;;;;;;5029583;28;20491;-70
2024/02/11 05:15:44;;;;;;;1.23;0.75;;;;;;;;;;5029064;28;20024;-71
2024/02/11 05:18:12;;;;;;;1.73;0.90;;;;;;;;;;5027663;28;20025;-72
2024/02/11 05:20:38;;;;;;;1.60;0.77;;;;;;;;;;5027397;28;20030;-71
2024/02/11 05:23:05;;;;;;;1.38;0.98;;;;;;;;;;5027020;28;20017;-71
2024/02/11 05:25:33;;;;;;;1.35;0.93;;;;;;;;;;5019005;28;20025;-70
2024/02/11 05:28:00;;;;;;;2.65;1.08;;;;;;;;;;5019715;28;20113;-70
2024/02/11 05:30:29;;;;;;;1.20;0.88;;;;;;;;;;5027566;28;20083;-70
2024/02/11 05:32:54;;;;;;;1.73;1.00;;;;;;;;;;5020892;28;20021;-70
2024/02/11 05:35:23;;;;;;;2.03;1.00;;;;;;;;;;5027899;28;20032;-70
2024/02/11 05:37:57;;;;;;;2.17;0.82;;;;;;;;;;5025915;28;20395;-70
2024/02/11 05:40:23;;;;;;;1.30;0.88;;;;;;;;;;5027349;28;20475;-70
2024/02/11 05:42:49;;;;;;;1.70;0.85;;;;;;;;;;5027880;28;20495;-71
2024/02/11 05:45:15;;;;;;;1.58;0.90;;;;;;;;;;5029329;28;20041;-71
2024/02/11 05:47:42;;;;;;;1.75;1.08;;;;;;;;;;5027502;28;20043;-71
2024/02/11 05:50:08;;;;;;;1.13;0.75;;;;;;;;;;5025183;28;20057;-71
2024/02/11 05:52:34;;;;;;;1.98;0.90;;;;;;;;;;5025625;28;20042;-71
2024/02/11 05:54:59;;;;;;;1.50;0.70;;;;;;;;;;5025290;28;20053;-70
2024/02/11 05:57:25;;;;;;;1.58;0.80;;;;;;;;;;5008399;28;20052;-71
2024/02/11 05:59:50;;;;;;;1.58;1.00;;;;;;;;;;5025177;28;20067;-70
2024/02/11 06:02:16;;;;;;;2.33;1.05;;;;;;;;;;5024536;28;20053;-73
2024/02/11 06:04:41;;;;;;;2.13;0.90;;;;;;;;;;5011234;28;20042;-73
2024/02/11 06:07:06;;;;;;;1.50;0.88;;;;;;;;;;5027327;28;20041;-72
2024/02/11 06:09:32;;;;;;;2.15;0.90;;;;;;;;;;5026053;28;20459;-71
2024/02/11 06:11:58;;;;;;;1.80;1.00;;;;;;;;;;5016034;28;20423;-71
2024/02/11 06:14:24;;;;;;;1.17;0.85;;;;;;;;;;5012237;28;20030;-71
2024/02/11 06:16:49;;;;;;;1.27;0.82;;;;;;;;;;5007969;28;20037;-72
2024/02/11 06:19:14;;;;;;;1.00;0.73;;;;;;;;;;5013794;28;20116;-71
2024/02/11 06:21:40;;;;;;;4.18;0.88;;;;;;;;;;5018544;28;20061;-71
2024/02/11 06:24:05;;;;;;;2.72;0.90;;;;;;;;;;5020559;28;20064;-73
2024/02/11 06:26:30;;;;;;;1.55;0.90;;;;;;;;;;5018639;28;20045;-72
2024/02/11 06:28:58;;;;;;;2.30;0.93;;;;;;;;;;5019558;28;20037;-72
2024/02/11 06:31:24;;;;;;;0.93;0.63;;;;;;;;;;5020063;28;20029;-74
2024/02/11 06:33:49;;;;;;;1.48;0.93;;;;;;;;;;5021025;28;20116;-73
2024/02/11 06:36:16;;;;;;;1.80;0.90;;;;;;;;;;5019070;28;20057;-71
2024/02/11 06:38:43;;;;;;;1.85;0.93;;;;;;;;;;5017810;28;20084;-69
2024/02/11 06:41:09;;;;;;;2.22;0.98;;;;;;;;;;5020256;28;20029;-71
2024/02/11 06:43:35;;;;;;;3.53;1.10;;;;;;;;;;5007994;28;20528;-71
2024/02/11 06:46:03;;;;;;;1.67;0.90;;;;;;;;;;5019717;28;20037;-71
2024/02/11 06:48:29;;;;;;;2.00;0.80;;;;;;;;;;5017738;28;20042;-75
2024/02/11 06:50:54;;;;;;;2.03;0.98;;;;;;;;;;4992729;28;20099;-73
2024/02/11 06:53:20;;;;;;;1.65;0.80;;;;;;;;;;5019638;28;20084;-73
2024/02/11 06:55:46;;;;;;;5.40;0.90;;;;;;;;;;5020538;28;20037;-71
2024/02/11 06:58:11;;;;;;;1.50;1.00;;;;;;;;;;4997185;28;20038;-73
2024/02/11 07:00:37;;;;;;;1.13;0.75;;;;;;;;;;4996368;28;20045;-71
2024/02/11 07:03:03;;;;;;;2.38;1.15;;;;;;;;;;5019432;28;20051;-74
2024/02/11 07:05:31;;;;;;;2.30;0.90;;;;;;;;;;5037038;28;20046;-72
2024/02/11 07:07:59;;;;;;;1.70;0.80;;;;;;;;;;5019600;28;20099;-73
2024/02/11 07:10:25;;;;;;;1.65;0.70;;;;;;;;;;5018426;28;20120;-71
2024/02/11 07:12:50;;;;;;;1.05;0.82;;;;;;;;;;5002665;28;20124;-72
2024/02/11 07:15:15;;;;;;;1.98;0.75;;;;;;;;;;5020747;28;20043;-70
2024/02/11 07:17:42;;;;;;;1.50;0.80;;;;;;;;;;5020127;28;20060;-70
2024/02/11 07:20:11;;;;;;;1.73;1.00;;;;;;;;;;5018508;28;20407;-71
2024/02/11 07:22:38;;;;;;;2.42;0.93;;;;;;;;;;5019547;28;20045;-72
2024/02/11 07:25:04;;;;;;;2.50;0.80;;;;;;;;;;5021965;28;20026;-73
2024/02/11 07:27:31;;;;;;;2.47;0.90;;;;;;;;;;5020802;28;20033;-72
2024/02/11 07:29:56;;;;;;;2.17;0.80;;;;;;;;;;5019845;28;20033;-74
2024/02/11 07:32:21;;;;;;;1.63;0.73;;;;;;;;;;5019322;28;20022;-74
2024/02/11 07:34:47;;;;;;;2.00;0.88;;;;;;;;;;5022209;28;20042;-71
2024/02/11 07:37:12;;;;;;;1.88;0.85;;;;;;;;;;5022285;28;20087;-74
2024/02/11 07:39:38;;;;;;;4.03;1.05;;;;;;;;;;4997268;28;20085;-74
2024/02/11 07:42:04;;;;;;;2.33;1.00;;;;;;;;;;5018224;28;20041;-75
2024/02/11 07:44:29;;;;;;;1.63;0.77;;;;;;;;;;5024927;28;20105;-71
2024/02/11 07:46:54;;;;;;;2.50;0.77;;;;;;;;;;5038122;28;20063;-73
2024/02/11 07:49:20;;;;;;;1.75;0.82;;;;;;;;;;5026997;28;20519;-69
2024/02/11 07:51:46;;;;;;;2.15;0.80;;;;;;;;;;5029381;28;20463;-71
2024/02/11 07:54:12;;;;;;;2.15;0.90;;;;;;;;;;5022043;28;20474;-71
2024/02/11 07:56:38;;;;;;;1.70;0.82;;;;;;;;;;5024822;28;20246;-70
2024/02/11 07:59:04;;;;;;;1.55;0.90;;;;;;;;;;5029404;28;20064;-70
2024/02/11 08:01:31;;;;;;;1.60;0.80;;;;;;;;;;5033711;28;20041;-72
2024/02/11 08:03:57;;;;;;;1.27;0.70;;;;;;;;;;5027012;28;20065;-70
2024/02/11 08:06:22;;;;;;;1.67;0.82;;;;;;;;;;5020003;28;20067;-72
2024/02/11 08:08:48;;;;;;;2.00;0.90;;;;;;;;;;5020723;28;20041;-72
2024/02/11 08:11:13;;;;;;;2.42;0.70;;;;;;;;;;5018513;28;20091;-72
2024/02/11 08:13:39;;;;;;;1.77;0.95;;;;;;;;;;5020989;28;20037;-72
2024/02/11 08:16:05;;;;;;;2.15;0.90;;;;;;;;;;5019658;28;20048;-73
2024/02/11 08:18:30;;;;;;;2.38;0.80;;;;;;;;;;5022098;28;20634;-71
2024/02/11 08:20:56;;;;;;;2.72;0.90;;;;;;;;;;5019784;28;20113;-71
2024/02/11 08:23:23;;;;;;;2.03;0.80;;;;;;;;;;5017425;28;20064;-72
2024/02/11 08:25:49;;;;;;;1.73;0.93;;;;;;;;;;5019592;28;20029;-68
2024/02/11 08:28:15;;;;;;;1.45;0.90;;;;;;;;;;5018827;28;20048;-72
2024/02/11 08:30:40;;;;;;;1.15;0.70;;;;;;;;;;5018790;28;20033;-73
2024/02/11 08:33:05;;;;;;;3.05;1.00;;;;;;;;;;5018388;28;20444;-73
2024/02/11 08:35:32;;;;;;;1.38;0.70;;;;;;;;;;5019637;28;20041;-70
2024/02/11 08:37:57;;;;;;;2.95;1.05;;;;;;;;;;5020121;28;20041;-71
2024/02/11 08:40:23;;;;;;;1.77;0.77;;;;;;;;;;5018256;28;20379;-72
2024/02/11 08:42:49;;;;;;;1.98;0.95;;;;;;;;;;5016451;28;20057;-72
2024/02/11 08:45:15;;;;;;;1.73;0.93;;;;;;;;;;5020806;28;20037;-76
2024/02/11 08:47:41;;;;;;;1.70;1.00;;;;;;;;;;5023596;28;20037;-73
2024/02/11 08:50:06;;;;;;;1.40;0.80;;;;;;;;;;5022419;28;20504;-73
2024/02/11 08:52:32;;;;;;;2.17;0.80;;;;;;;;;;5020250;28;21720;-71
2024/02/11 08:54:58;;;;;;;1.75;0.80;;;;;;;;;;5020544;28;20036;-71
2024/02/11 08:57:26;;;;;;;2.00;0.70;;;;;;;;;;5019880;28;20046;-71
2024/02/11 08:59:52;;;;;;;2.20;0.80;;;;;;;;;;5022765;28;20025;-73
2024/02/11 09:02:17;;;;;;;1.45;0.88;;;;;;;;;;5025808;28;20033;-74
2024/02/11 09:04:43;;;;;;;1.35;0.80;;;;;;;;;;5019928;28;20504;-71
2024/02/11 09:07:09;;;;;;;2.28;0.73;;;;;;;;;;5019791;28;20026;-70
2024/02/11 09:09:34;;;;;;;1.48;0.77;;;;;;;;;;5005525;28;20025;-72
2024/02/11 09:12:00;;;;;;;3.20;1.13;;;;;;;;;;5030618;28;20048;-74
2024/02/11 09:14:29;;;;;;;2.33;1.00;;;;;;;;;;5022516;28;20033;-74
2024/02/11 09:16:56;;;;;;;1.30;0.70;;;;;;;;;;5021959;28;20120;-73
2024/02/11 09:19:22;;;;;;;1.88;0.98;;;;;;;;;;5018261;28;20399;-70
2024/02/11 09:21:48;;;;;;;2.38;0.75;;;;;;;;;;5016568;28;20033;-72
2024/02/11 09:24:13;;;;;;;1.60;0.90;;;;;;;;;;5003898;28;20030;-73
2024/02/11 09:26:39;;;;;;;2.42;0.95;;;;;;;;;;5023261;28;20041;-72
2024/02/11 09:29:07;;;;;;;2.53;0.70;;;;;;;;;;4999754;28;20030;-74
2024/02/11 09:31:32;;;;;;;1.42;0.90;;;;;;;;;;5000292;28;20037;-71
2024/02/11 09:33:58;;;;;;;1.92;0.77;;;;;;;;;;5003768;28;20037;-72
2024/02/11 09:36:24;;;;;;;2.90;0.90;;;;;;;;;;5021515;28;20046;-72
2024/02/11 09:38:49;;;;;;;2.58;1.00;;;;;;;;;;5020227;28;20217;-72
2024/02/11 09:41:14;;;;;;;1.35;0.70;;;;;;;;;;5018990;28;20415;-72
2024/02/11 09:43:40;;;;;;;1.55;0.85;;;;;;;;;;5021466;28;20495;-71
2024/02/11 09:46:05;;;;;;;6.22;0.90;;;;;;;;;;5021610;28;20423;-73
2024/02/11 09:48:31;;;;;;;4.07;1.67;;;;;;;;;;5000707;28;20120;-69
2024/02/11 09:50:56;;;;;;;2.85;0.98;;;;;;;;;;5037525;28;20199;-73
2024/02/11 09:53:22;;;;;;;2.40;1.08;;;;;;;;;;5035103;28;20033;-72
2024/02/11 09:55:47;;;;;;;2.42;0.93;;;;;;;;;;5020290;28;20037;-76
2024/02/11 09:58:13;;;;;;;1.35;0.82;;;;;;;;;;5024436;28;20044;-76
2024/02/11 10:00:38;;;;;;;4.72;0.77;;;;;;;;;;5024965;28;20040;-74
2024/02/11 10:03:05;;;;;;;1.15;0.70;;;;;;;;;;5020127;28;20045;-70
2024/02/11 10:05:31;;;;;;;1.58;0.80;;;;;;;;;;5036220;28;20044;-71
2024/02/11 10:07:58;;;;;;;1.80;0.80;;;;;;;;;;5021963;28;20151;-71
2024/02/11 10:10:23;;;;;;;1.85;0.95;;;;;;;;;;5019541;28;20130;-71
2024/02/11 10:12:49;;;;;;;2.33;0.70;;;;;;;;;;5020444;28;20099;-69
2024/02/11 10:15:16;;;;;;;2.40;0.90;;;;;;;;;;5034261;28;20508;-69
2024/02/11 10:17:41;;;;;;;1.58;0.90;;;;;;;;;;5017986;28;20054;-70
2024/02/11 10:20:09;;;;;;;1.30;0.85;;;;;;;;;;5021007;28;20034;-69
2024/02/11 10:22:35;;;;;;;2.30;0.80;;;;;;;;;;5020496;28;20487;-72
2024/02/11 10:25:00;;;;;;;1.58;0.80;;;;;;;;;;5019367;28;20038;-69
2024/02/11 10:27:25;;;;;;;2.70;1.00;;;;;;;;;;5021388;28;20017;-72
2024/02/11 10:29:51;;;;;;;4.45;0.80;;;;;;;;;;5020568;28;20033;-72
2024/02/11 10:32:16;;;;;;;3.05;0.90;;;;;;;;;;5019237;28;20040;-73
2024/02/11 10:34:44;;;;;;;1.60;0.70;;;;;;;;;;5021545;28;20030;-71
2024/02/11 10:37:14;;;;;;;4.05;1.00;;;;;;;;;;5036800;28;20036;-72
2024/02/11 10:39:40;;;;;;;1.80;0.80;;;;;;;;;;5019984;28;20101;-70
2024/02/11 10:42:08;;;;;;;2.70;0.80;;;;;;;;;;5018712;28;20025;-72
2024/02/11 10:44:34;;;;;;;2.20;1.00;;;;;;;;;;5001674;28;20022;-72
2024/02/11 10:46:59;;;;;;;3.35;1.00;;;;;;;;;;5021148;28;20064;-72
2024/02/11 10:49:24;;;;;;;2.92;0.95;;;;;;;;;;5020561;28;20026;-72
2024/02/11 10:51:52;;;;;;;1.95;0.88;;;;;;;;;;5021714;28;20482;-74
2024/02/11 10:54:17;;;;;;;3.63;0.80;;;;;;;;;;5034451;28;20049;-71
2024/02/11 10:56:44;;;;;;;2.20;0.80;;;;;;;;;;5017772;28;20064;-71
2024/02/11 10:59:16;;;;;;;1.33;0.82;;;;;;;;;;5020521;28;20082;-70
2024/02/11 11:01:42;;;;;;;2.13;0.90;;;;;;;;;;5020111;28;20030;-71
2024/02/11 11:04:08;;;;;;;1.88;1.05;;;;;;;;;;5000563;28;20492;-71
2024/02/11 11:06:35;;;;;;;6.50;1.10;;;;;;;;;;5003053;28;20029;-71
2024/02/11 11:09:00;;;;;;;1.70;0.90;;;;;;;;;;5021710;28;20136;-72
2024/02/11 11:11:26;;;;;;;3.25;1.10;;;;;;;;;;5021902;28;20125;-75
2024/02/11 11:13:56;;;;;;;7.55;0.98;;;;;;;;;;5018258;28;20033;-74
2024/02/11 11:16:30;;;;;;;3.60;0.90;;;;;;;;;;5019617;28;20483;-74
2024/02/11 11:19:01;;;;;;;2.22;0.70;;;;;;;;;;5021108;28;20057;-73
2024/02/11 11:21:27;;;;;;;2.13;0.80;;;;;;;;;;5020369;28;20423;-73
2024/02/11 11:23:52;;;;;;;2.05;1.02;;;;;;;;;;5020183;28;20029;-71
2024/02/11 11:26:19;;;;;;;3.17;1.13;;;;;;;;;;5019544;28;20244;-73
2024/02/11 11:28:44;;;;;;;2.78;1.00;;;;;;;;;;5018096;28;20056;-72
2024/02/11 11:31:11;;;;;;;4.80;1.25;;;;;;;;;;5030995;28;20657;-74
2024/02/11 11:33:37;;;;;;;3.13;1.20;;;;;;;;;;5017424;28;20041;-76
2024/02/11 11:36:03;;;;;;;5.30;1.00;;;;;;;;;;5035686;28;20040;-74
2024/02/11 11:38:29;;;;;;;1.95;0.85;;;;;;;;;;5022436;28;20574;-75
2024/02/11 11:40:54;;;;;;;2.35;1.02;;;;;;;;;;5020694;28;20040;-71
2024/02/11 11:43:32;;;;;;;3.22;0.93;;;;;;;;;;5018322;28;20057;-75
2024/02/11 11:45:57;;;;;;;3.53;1.17;;;;;;;;;;5019041;28;20040;-72
2024/02/11 11:48:23;;;;;;;3.67;1.02;;;;;;;;;;5016913;28;20033;-71
2024/02/11 11:50:55;;;;;;;4.18;1.10;;;;;;;;;;5016166;28;20091;-70
2024/02/11 11:53:23;;;;;;;3.53;1.20;;;;;;;;;;5013832;28;20127;-72
2024/02/11 11:55:50;;;;;;;2.97;1.33;;;;;;;;;;5016847;28;20224;-73
2024/02/11 11:58:23;;;;;;;2.42;0.80;;;;;;;;;;5015404;28;20037;-73
2024/02/11 12:00:55;;;;;;;4.13;1.30;;;;;;;;;;5007587;28;20403;-73
2024/02/11 12:03:20;;;;;;;3.38;1.10;;;;;;;;;;5018671;28;20036;-74
2024/02/11 12:05:46;;;;;;;2.10;0.80;;;;;;;;;;5021462;28;20203;-75
2024/02/11 12:08:12;;;;;;;3.15;1.17;;;;;;;;;;5020700;28;20103;-74
2024/02/11 12:10:37;;;;;;;3.35;1.00;;;;;;;;;;5018546;28;20037;-74
2024/02/11 12:13:02;;;;;;;2.90;1.25;;;;;;;;;;5020083;28;20041;-73
2024/02/11 12:15:29;;;;;;;4.88;1.10;;;;;;;;;;5035619;28;20068;-74
2024/02/11 12:17:58;;;;;;;2.70;1.00;;;;;;;;;;5020567;28;20119;-74
2024/02/11 12:20:23;;;;;;;2.55;0.95;;;;;;;;;;5021825;28;20034;-75
2024/02/11 12:22:48;;;;;;;4.57;1.20;;;;;;;;;;5020664;28;20189;-75
2024/02/11 12:25:18;;;;;;;4.25;1.02;;;;;;;;;;5020256;28;20041;-76
2024/02/11 12:27:48;;;;;;;3.28;1.17;;;;;;;;;;5021068;28;20041;-74
2024/02/11 12:30:13;;;;;;;;;;;;;;;;;;5021266;28;20030;-73
2024/02/11 12:32:38;;;;;;;5.50;1.33;;;;;;;;;;5017985;28;19920;-72
2024/02/11 12:35:04;;;;;;;3.38;0.90;;;;;;;;;;5019532;28;20033;-72
2024/02/11 12:37:34;;;;;;;3.38;1.10;;;;;;;;;;5019742;28;20046;-74
2024/02/11 12:39:59;;;;;;;2.92;1.00;;;;;;;;;;5019542;28;20113;-74
2024/02/11 12:42:25;;;;;;;2.10;0.98;;;;;;;;;;4997974;28;20120;-75
2024/02/11 12:44:51;;;;;;;3.70;0.90;;;;;;;;;;5019321;28;20179;-74
2024/02/11 12:47:16;;;;;;;3.25;1.10;;;;;;;;;;5024012;28;20120;-74
2024/02/11 12:49:41;;;;;;;4.90;1.10;;;;;;;;;;5022890;28;20073;-74
2024/02/11 12:52:07;;;;;;;4.75;1.30;;;;;;;;;;5022354;28;20033;-76
2024/02/11 12:54:33;;;;;;;5.13;1.30;;;;;;;;;;5018627;28;20030;-74
2024/02/11 12:56:58;;;;;;;2.55;1.27;;;;;;;;;;5022731;28;20046;-72
2024/02/11 12:59:23;;;;;;;3.08;1.20;;;;;;;;;;5024139;28;20042;-74
2024/02/11 13:01:49;;;;;;;3.30;1.20;;;;;;;;;;5028374;28;20072;-74
2024/02/11 13:04:14;;;;;;;3.03;1.10;;;;;;;;;;5029353;28;20121;-73
2024/02/11 13:06:39;;;;;;;4.95;1.30;;;;;;;;;;5028016;28;20057;-73
2024/02/11 13:09:05;;;;;;;5.22;1.40;;;;;;;;;;5024251;28;20054;-74
2024/02/11 13:11:30;;;;;;;3.72;1.10;;;;;;;;;;5026126;28;20034;-73
2024/02/11 13:13:57;;;;;;;4.55;1.42;;;;;;;;;;5026182;28;20037;-75
2024/02/11 13:16:23;;;;;;;4.65;1.30;;;;;;;;;;5025141;28;20033;-76
2024/02/11 13:18:51;;;;;;;4.35;1.25;;;;;;;;;;5025079;28;20044;-73
2024/02/11 13:21:17;;;;;;;5.80;1.50;;;;;;;;;;5006478;28;20048;-74
2024/02/11 13:23:42;;;;;;;4.13;1.25;;;;;;;;;;5003027;28;20029;-77
2024/02/11 13:26:08;;;;;;;7.65;1.42;;;;;;;;;;5024976;28;20033;-76
2024/02/11 13:28:33;;;;;;;5.30;1.30;;;;;;;;;;5025211;28;20029;-77
2024/02/11 13:30:59;;;;;;;2.97;1.33;;;;;;;;;;5009570;28;20033;-77
2024/02/11 13:33:25;;;;;;;3.55;1.40;;;;;;;;;;5024202;28;20423;-75
2024/02/11 13:35:51;;;;;;;4.68;1.25;;;;;;;;;;5023806;28;20055;-71
2024/02/11 13:38:17;;;;;;;3.67;1.00;;;;;;;;;;5024702;28;20103;-69
2024/02/11 13:40:45;;;;;;;6.03;1.30;;;;;;;;;;5025772;28;20029;-72
2024/02/11 13:43:13;;;;;;;5.50;1.40;;;;;;;;;;5023537;28;20085;-72
2024/02/11 13:45:39;;;;;;;4.32;1.80;;;;;;;;;;5022583;28;20090;-74
2024/02/11 13:48:04;;;;;;;4.82;1.50;;;;;;;;;;5022969;28;20136;-71
2024/02/11 13:50:30;;;;;;;6.80;1.63;;;;;;;;;;5022963;28;20034;-72
2024/02/11 13:52:59;;;;;;;6.20;1.80;;;;;;;;;;5021402;28;20040;-71
2024/02/11 13:55:24;;;;;;;5.50;1.67;;;;;;;;;;5022153;28;20535;-71
2024/02/11 13:57:49;;;;;;;5.22;1.70;;;;;;;;;;5023874;28;20044;-73
2024/02/11 14:00:16;;;;;;;4.32;1.08;;;;;;;;;;5021298;28;20094;-72
2024/02/11 14:02:42;;;;;;;3.58;1.13;;;;;;;;;;5022802;28;20055;-72
2024/02/11 14:05:08;;;;;;;6.57;1.50;;;;;;;;;;5025353;28;20028;-73
2024/02/11 14:07:33;;;;;;;5.90;1.20;;;;;;;;;;5024321;28;20026;-73
2024/02/11 14:10:00;;;;;;;7.13;1.38;;;;;;;;;;5022974;28;20025;-72
2024/02/11 14:12:26;;;;;;;5.60;1.10;;;;;;;;;;5023742;28;20034;-70
2024/02/11 14:14:53;;;;;;;4.43;1.15;;;;;;;;;;5022038;28;20529;-72
2024/02/11 14:17:19;;;;;;;3.88;1.08;;;;;;;;;;5023066;28;20510;-73
2024/02/11 14:19:44;;;;;;;4.65;1.40;;;;;;;;;;5023153;28;20049;-72
2024/02/11 14:22:10;;;;;;;5.78;1.52;;;;;;;;;;5023572;28;20134;-71
2024/02/11 14:24:35;;;;;;;6.60;1.40;;;;;;;;;;5021721;28;20044;-69
2024/02/11 14:27:01;;;;;;;5.28;1.02;;;;;;;;;;5022810;28;20038;-69
2024/02/11 14:29:27;;;;;;;4.72;1.30;;;;;;;;;;5021508;28;20690;-72
2024/02/11 14:31:53;;;;;;;7.10;1.48;;;;;;;;;;5021914;28;20041;-72
2024/02/11 14:34:19;;;;;;;3.92;1.20;;;;;;;;;;5021987;28;20408;-72
2024/02/11 14:36:44;;;;;;;5.05;1.30;;;;;;;;;;5021758;28;20518;-73
2024/02/11 14:39:10;;;;;;;4.43;1.20;;;;;;;;;;5021310;28;20231;-71